Time;durP1;ratioP1;P1;durP2;ratioP2;P2;SDS_P1;SDS_P2;PMS_P1;PMS_P2;Temp;Humidity;BMP_temperature;BMP_pressure;BME280_temperature;BME280_humidity;BME280_pressure;Samples;Min_cycle;Max_cycle;Signal;HPM_P1;HPM_P2
2023/04/15 00:01:35;;;;;;;14.50;9.70;;;;;;;9.91;70.01;99286.91;103065;1255;108224;-76
2023/04/15 00:03:59;;;;;;;12.60;9.80;;;;;;;9.89;69.51;99293.77;103083;1260;97691;-77
2023/04/15 00:06:23;;;;;;;11.80;9.50;;;;;;;9.89;69.27;99289.75;103004;1256;138331;-76
2023/04/15 00:08:47;;;;;;;13.00;10.00;;;;;;;9.91;69.50;99287.27;103084;1256;98132;-77
2023/04/15 00:11:11;;;;;;;14.40;9.60;;;;;;;9.90;69.73;99291.62;102938;1262;138635;-77
2023/04/15 00:13:34;;;;;;;14.10;9.60;;;;;;;9.89;69.79;99289.56;103086;1256;108294;-77
2023/04/15 00:15:58;;;;;;;13.70;10.50;;;;;;;9.88;69.51;99285.27;103079;1256;97667;-76
2023/04/15 00:18:23;;;;;;;13.70;9.50;;;;;;;9.89;69.99;99285.60;102973;1256;138375;-77
2023/04/15 00:20:46;;;;;;;11.30;9.40;;;;;;;9.87;69.93;99282.02;103086;1256;97886;-76
2023/04/15 00:23:10;;;;;;;14.60;10.30;;;;;;;9.88;69.78;99287.56;102937;1256;138802;-72
2023/04/15 00:25:33;;;;;;;14.20;10.20;;;;;;;9.87;70.55;99290.36;102860;1256;108548;-75
2023/04/15 00:27:57;;;;;;;12.10;10.30;;;;;;;9.83;70.46;99281.34;103021;1261;98139;-74
2023/04/15 00:30:22;;;;;;;11.90;10.10;;;;;;;9.79;71.22;99288.27;102959;1256;138440;-76
2023/04/15 00:32:46;;;;;;;12.10;10.00;;;;;;;9.74;71.70;99284.20;103108;1261;97359;-76
2023/04/15 00:35:11;;;;;;;13.30;10.70;;;;;;;9.66;72.35;99284.13;102914;1256;138781;-76
2023/04/15 00:37:35;;;;;;;15.40;10.50;;;;;;;9.59;73.13;99281.69;102994;1260;107017;-76
2023/04/15 00:39:59;;;;;;;12.70;10.60;;;;;;;9.53;73.16;99283.02;103180;1259;97726;-76
2023/04/15 00:42:24;;;;;;;13.80;10.90;;;;;;;9.49;72.90;99282.98;103328;1258;138431;-75
2023/04/15 00:44:47;;;;;;;13.90;11.10;;;;;;;9.47;73.34;99278.73;103069;1256;97794;-75
2023/04/15 00:47:11;;;;;;;15.50;11.00;;;;;;;9.45;73.74;99279.55;103071;1256;138733;-75
2023/04/15 00:49:35;;;;;;;13.10;10.10;;;;;;;9.41;73.91;99277.45;103234;1256;107526;-75
2023/04/15 00:51:58;;;;;;;13.60;11.30;;;;;;;9.37;73.80;99278.30;103074;1256;98325;-76
2023/04/15 00:54:23;;;;;;;13.80;10.80;;;;;;;9.38;74.04;99278.12;103193;1259;138610;-76
2023/04/15 00:56:55;;;;;;;14.00;10.90;;;;;;;9.37;74.24;99280.73;104035;1256;96006;-76
2023/04/15 00:59:22;;;;;;;13.70;10.90;;;;;;;9.36;74.73;99282.88;103057;1256;138699;-76
2023/04/15 01:01:47;;;;;;;18.00;12.00;;;;;;;9.31;75.33;99278.36;103065;1256;107250;-75
2023/04/15 01:04:11;;;;;;;12.10;10.70;;;;;;;9.28;74.74;99277.30;103157;1256;97758;-75
2023/04/15 01:06:35;;;;;;;15.40;11.10;;;;;;;9.27;75.30;99276.14;103034;1260;138848;-75
2023/04/15 01:09:01;;;;;;;14.40;11.30;;;;;;;9.26;75.07;99279.66;103161;1256;97804;-75
2023/04/15 01:11:27;;;;;;;13.10;11.10;;;;;;;9.25;74.92;99278.47;103210;1260;139543;-75
2023/04/15 01:13:51;;;;;;;11.70;10.50;;;;;;;9.26;74.74;99271.51;103069;1256;107755;-74
2023/04/15 01:16:16;;;;;;;13.20;11.20;;;;;;;9.26;75.18;99275.64;103117;1256;98300;-75
2023/04/15 01:18:40;;;;;;;13.90;11.30;;;;;;;9.28;75.07;99275.42;103993;1260;139123;-73
2023/04/15 01:21:05;;;;;;;12.50;10.90;;;;;;;9.27;75.56;99275.46;103221;1256;97887;-75
2023/04/15 01:23:35;;;;;;;14.00;11.60;;;;;;;9.27;75.61;99274.94;103963;1256;138655;-75
2023/04/15 01:26:21;;;;;;;13.60;11.40;;;;;;;9.25;76.15;99273.96;103076;1256;107298;-75
2023/04/15 01:28:56;;;;;;;14.20;10.50;;;;;;;9.25;75.95;99280.40;104329;1256;139344;-74
2023/04/15 01:31:20;;;;;;;14.30;11.80;;;;;;;9.22;76.31;99282.77;103127;1261;107459;-74
2023/04/15 01:33:45;;;;;;;15.30;11.70;;;;;;;9.21;76.83;99278.85;103105;1261;97706;-72
2023/04/15 01:36:13;;;;;;;17.10;12.30;;;;;;;9.18;76.77;99276.54;102968;1260;138460;-75
2023/04/15 01:38:39;;;;;;;15.20;12.20;;;;;;;9.16;76.94;99275.04;104411;1257;108464;-75
2023/04/15 01:41:03;;;;;;;15.60;12.60;;;;;;;9.13;77.39;99278.80;104132;1258;138578;-74
2023/04/15 01:43:29;;;;;;;15.80;11.80;;;;;;;9.10;77.59;99273.73;103385;1257;107585;-75
2023/04/15 01:45:53;;;;;;;14.20;12.20;;;;;;;9.06;78.20;99275.11;103067;1259;97903;-75
2023/04/15 01:48:17;;;;;;;15.20;12.80;;;;;;;9.02;78.28;99279.09;103756;1257;138814;-75
2023/04/15 01:50:41;;;;;;;15.20;12.80;;;;;;;8.99;78.59;99274.71;103072;1259;107865;-75
2023/04/15 01:53:08;;;;;;;16.70;13.70;;;;;;;8.97;78.77;99273.92;103002;1259;138601;-75
2023/04/15 01:55:44;;;;;;;19.80;13.80;;;;;;;8.95;79.24;99276.61;104362;1257;107554;-75
2023/04/15 01:58:11;;;;;;;16.30;13.80;;;;;;;8.91;80.04;99277.29;103533;1261;97783;-74
2023/04/15 02:00:34;;;;;;;18.20;14.10;;;;;;;8.87;80.25;99275.04;104167;1259;138729;-75
2023/04/15 02:03:01;;;;;;;17.50;13.40;;;;;;;8.83;80.56;99278.14;103121;1257;107972;-74
2023/04/15 02:05:45;;;;;;;18.30;15.00;;;;;;;8.79;81.49;99278.98;102772;1258;138590;-74
2023/04/15 02:08:20;;;;;;;20.00;15.00;;;;;;;8.73;81.72;99279.39;103100;1259;107918;-74
2023/04/15 02:10:46;;;;;;;21.20;15.70;;;;;;;8.70;81.98;99276.95;102917;1258;97808;-75
2023/04/15 02:13:13;;;;;;;23.20;16.00;;;;;;;8.66;83.13;99278.15;103053;1257;138479;-74
2023/04/15 02:15:37;;;;;;;18.70;15.30;;;;;;;8.61;82.81;99271.39;103125;1256;108628;-75
2023/04/15 02:18:10;;;;;;;21.70;15.90;;;;;;;8.59;82.93;99272.67;102979;1256;138400;-74
2023/04/15 02:20:35;;;;;;;19.30;16.00;;;;;;;8.56;83.70;99275.75;103067;1256;108245;-74
2023/04/15 02:22:59;;;;;;;20.90;17.20;;;;;;;8.53;83.69;99273.10;103217;1256;138687;-74
2023/04/15 02:25:22;;;;;;;21.90;16.90;;;;;;;8.53;83.49;99273.46;103019;1258;111735;-74
2023/04/15 02:27:46;;;;;;;22.30;17.00;;;;;;;8.52;83.72;99270.73;104173;1259;107757;-74
2023/04/15 02:30:10;;;;;;;24.00;17.40;;;;;;;8.52;83.92;99270.58;102841;1261;140239;-75
2023/04/15 02:32:34;;;;;;;19.80;16.60;;;;;;;8.52;84.06;99274.55;103081;1259;107351;-75
2023/04/15 02:35:02;;;;;;;24.10;16.00;;;;;;;8.51;84.55;99276.30;102945;1259;138723;-74
2023/04/15 02:37:30;;;;;;;22.20;16.30;;;;;;;8.52;84.50;99274.20;103762;1257;111234;-75
2023/04/15 02:39:54;;;;;;;20.40;17.00;;;;;;;8.51;84.80;99270.75;103190;1257;107044;-75
2023/04/15 02:42:20;;;;;;;20.70;16.40;;;;;;;8.51;85.03;99271.98;104314;1257;138374;-76
2023/04/15 02:44:44;;;;;;;22.60;17.20;;;;;;;8.49;84.99;99270.15;103131;1257;107459;-75
2023/04/15 02:47:09;;;;;;;22.80;17.10;;;;;;;8.50;85.18;99269.94;103242;1259;138543;-75
2023/04/15 02:49:32;;;;;;;21.60;17.30;;;;;;;8.50;84.92;99269.75;103111;1259;111837;-75
2023/04/15 02:51:57;;;;;;;19.50;16.80;;;;;;;8.52;85.26;99268.13;102860;1257;107468;-75
2023/04/15 02:54:21;;;;;;;20.70;16.70;;;;;;;8.53;85.51;99266.02;102937;1261;139660;-75
2023/04/15 02:56:48;;;;;;;18.80;15.90;;;;;;;8.54;85.38;99263.20;103058;1257;107767;-75
2023/04/15 02:59:12;;;;;;;21.20;15.80;;;;;;;8.56;85.31;99267.10;103001;1256;138553;-73
2023/04/15 03:01:36;;;;;;;19.60;15.60;;;;;;;8.57;85.49;99268.44;103095;1260;112050;-74
2023/04/15 03:03:59;;;;;;;20.20;16.20;;;;;;;8.58;85.64;99264.75;103097;1262;108602;-74
2023/04/15 03:06:23;;;;;;;21.00;15.80;;;;;;;8.58;85.33;99268.54;103845;1256;138590;-74
2023/04/15 03:08:47;;;;;;;22.50;16.70;;;;;;;8.60;85.08;99266.05;103627;1258;108198;-74
2023/04/15 03:11:11;;;;;;;20.50;15.10;;;;;;;8.61;85.17;99267.23;103033;1256;138752;-73
2023/04/15 03:13:35;;;;;;;20.30;15.80;;;;;;;8.62;85.52;99265.84;103181;1260;111350;-73
2023/04/15 03:16:06;;;;;;;19.90;16.10;;;;;;;8.62;85.78;99268.79;103028;1256;108204;-74
2023/04/15 03:18:30;;;;;;;20.60;16.70;;;;;;;8.61;85.66;99267.40;103200;1260;138440;-74
2023/04/15 03:20:56;;;;;;;18.70;15.70;;;;;;;8.62;85.35;99266.35;103108;1257;107889;-74
2023/04/15 03:23:20;;;;;;;22.40;15.70;;;;;;;8.63;85.37;99268.38;103014;1259;139583;-74
2023/04/15 03:25:45;;;;;;;17.20;14.90;;;;;;;8.64;85.62;99266.95;102871;1257;110718;-73
2023/04/15 03:28:11;;;;;;;19.20;15.70;;;;;;;8.65;85.41;99267.77;103046;1260;108103;-73
2023/04/15 03:30:34;;;;;;;18.20;14.20;;;;;;;8.66;85.51;99260.45;102877;1261;138368;-73
2023/04/15 03:32:58;;;;;;;19.20;15.20;;;;;;;8.67;85.77;99269.77;103366;1260;109622;-73
2023/04/15 03:35:25;;;;;;;20.20;15.70;;;;;;;8.67;85.88;99269.94;102769;1263;138966;-74
2023/04/15 03:37:48;;;;;;;17.70;14.80;;;;;;;8.67;85.36;99269.24;103145;1260;111822;-73
2023/04/15 03:40:14;;;;;;;;;;;;;;;8.68;85.51;99270.59;103014;1260;108431;-74
2023/04/15 03:42:38;;;;;;;18.50;15.10;;;;;;;8.68;86.10;99268.88;103228;1259;124489;-74
2023/04/15 03:45:02;;;;;;;16.40;14.20;;;;;;;8.67;85.79;99273.23;103055;1262;108439;-74
2023/04/15 03:47:25;;;;;;;16.00;14.20;;;;;;;8.68;85.37;99270.26;102927;1260;138576;-75
2023/04/15 03:50:03;;;;;;;18.10;14.00;;;;;;;8.69;86.12;99273.67;103119;1259;111293;-75
2023/04/15 03:52:26;;;;;;;20.00;14.90;;;;;;;8.69;85.82;99271.41;104426;1259;107773;-74
2023/04/15 03:54:50;;;;;;;17.40;14.60;;;;;;;8.69;85.74;99273.13;104310;1255;140214;-75
2023/04/15 03:57:13;;;;;;;17.10;14.20;;;;;;;8.70;85.80;99278.49;104369;1256;108033;-74
2023/04/15 03:59:37;;;;;;;18.50;14.70;;;;;;;8.70;85.79;99271.36;104306;1260;138503;-76
2023/04/15 04:02:00;;;;;;;19.30;15.50;;;;;;;8.72;85.58;99273.37;104352;1258;111218;-75
2023/04/15 04:04:27;;;;;;;21.00;14.80;;;;;;;8.73;85.89;99277.65;104376;1259;107632;-76
2023/04/15 04:06:50;;;;;;;21.50;15.80;;;;;;;8.75;85.76;99277.40;104298;1256;138293;-76
2023/04/15 04:09:14;;;;;;;17.20;14.40;;;;;;;8.76;86.18;99279.45;103357;1258;107399;-75
2023/04/15 04:11:37;;;;;;;17.20;14.10;;;;;;;8.77;85.84;99280.80;103366;1260;138470;-75
2023/04/15 04:14:01;;;;;;;19.20;14.40;;;;;;;8.77;86.30;99279.56;103087;1260;110966;-75
2023/04/15 04:16:27;;;;;;;19.10;14.20;;;;;;;8.77;86.39;99281.32;103044;1258;108663;-75
2023/04/15 04:18:51;;;;;;;17.90;14.70;;;;;;;8.77;85.83;99278.38;104015;1260;138516;-75
2023/04/15 04:21:15;;;;;;;20.30;14.90;;;;;;;8.76;86.29;99282.55;103082;1260;108792;-75
2023/04/15 04:23:38;;;;;;;17.60;14.30;;;;;;;8.75;86.72;99278.62;102946;1256;138408;-76
2023/04/15 04:26:02;;;;;;;19.40;14.40;;;;;;;8.74;86.24;99281.10;103122;1260;111689;-73
2023/04/15 04:28:26;;;;;;;20.80;14.70;;;;;;;8.73;86.15;99280.63;103106;1258;108639;-73
2023/04/15 04:30:49;;;;;;;20.00;15.30;;;;;;;8.73;86.52;99277.17;102953;1256;138342;-75
2023/04/15 04:33:13;;;;;;;20.20;15.00;;;;;;;8.72;87.14;99279.29;103117;1260;107341;-75
2023/04/15 04:35:57;;;;;;;19.70;14.60;;;;;;;8.70;87.38;99279.20;102925;1260;138327;-74
2023/04/15 04:38:20;;;;;;;18.20;13.90;;;;;;;8.68;86.90;99278.77;103011;1262;110870;-73
2023/04/15 04:40:46;;;;;;;18.10;14.80;;;;;;;8.67;87.51;99278.95;104113;1256;107381;-74
2023/04/15 04:43:10;;;;;;;15.90;12.50;;;;;;;8.65;87.67;99280.59;103007;1256;140229;-75
2023/04/15 04:45:36;;;;;;;17.60;14.40;;;;;;;8.64;87.82;99279.25;103086;1260;108356;-75
2023/04/15 04:48:20;;;;;;;20.50;14.40;;;;;;;8.64;87.85;99279.46;102909;1260;138553;-73
2023/04/15 04:50:45;;;;;;;17.10;14.30;;;;;;;8.63;88.09;99278.96;103076;1260;110936;-73
2023/04/15 04:53:12;;;;;;;17.70;14.90;;;;;;;8.62;88.33;99277.42;102929;1260;138658;-73
2023/04/15 04:55:36;;;;;;;18.60;14.60;;;;;;;8.61;88.04;99277.80;103186;1260;98403;-74
2023/04/15 04:58:00;;;;;;;18.50;14.00;;;;;;;8.61;88.67;99273.30;103852;1260;107462;-74
2023/04/15 05:00:24;;;;;;;18.00;14.70;;;;;;;8.61;88.08;99275.20;103670;1260;138657;-75
2023/04/15 05:02:47;;;;;;;19.70;14.40;;;;;;;8.61;88.63;99278.48;104382;1256;111210;-75
2023/04/15 05:05:12;;;;;;;19.60;14.40;;;;;;;8.62;88.51;99277.28;103012;1262;138988;-75
2023/04/15 05:07:36;;;;;;;18.80;14.90;;;;;;;8.61;88.87;99279.70;103137;1256;99493;-75
2023/04/15 05:09:59;;;;;;;21.70;15.40;;;;;;;8.62;88.31;99282.44;103133;1260;108997;-75
2023/04/15 05:12:22;;;;;;;20.50;15.40;;;;;;;8.63;88.09;99277.22;103108;1260;138347;-75
2023/04/15 05:14:49;;;;;;;17.40;14.30;;;;;;;8.65;88.82;99282.36;103166;1258;111636;-74
2023/04/15 05:17:13;;;;;;;21.60;14.70;;;;;;;8.63;88.56;99279.84;102783;1258;319950;-75
2023/04/15 05:19:36;;;;;;;17.70;14.70;;;;;;;8.64;88.49;99281.69;103147;1257;98245;-75
2023/04/15 05:22:05;;;;;;;16.90;14.40;;;;;;;8.64;88.70;99282.91;103160;1258;108114;-75
2023/04/15 05:24:28;;;;;;;17.70;14.70;;;;;;;8.62;88.93;99286.95;103113;1262;138460;-75
2023/04/15 05:26:52;;;;;;;19.70;15.50;;;;;;;8.63;88.38;99285.36;103160;1257;112159;-75
2023/04/15 05:29:16;;;;;;;18.20;14.30;;;;;;;8.64;88.67;99284.27;103070;1257;138673;-75
2023/04/15 05:31:39;;;;;;;18.10;14.50;;;;;;;8.65;88.77;99285.10;103130;1261;97715;-75
2023/04/15 05:34:04;;;;;;;16.90;13.50;;;;;;;8.65;88.92;99284.39;103400;1262;107060;-74
2023/04/15 05:36:28;;;;;;;19.50;13.70;;;;;;;8.64;89.11;99284.44;103464;1259;138303;-75
2023/04/15 05:38:51;;;;;;;16.70;13.80;;;;;;;8.65;88.81;99283.38;103117;1262;110800;-74
2023/04/15 05:41:16;;;;;;;16.80;13.30;;;;;;;8.66;88.86;99284.04;102949;1258;138806;-74
2023/04/15 05:43:43;;;;;;;15.70;13.70;;;;;;;8.67;88.62;99286.24;103200;1258;97755;-75
2023/04/15 05:46:07;;;;;;;18.10;13.90;;;;;;;8.68;88.89;99286.55;103141;1261;108534;-75
2023/04/15 05:48:31;;;;;;;16.10;13.70;;;;;;;8.68;89.54;99290.16;103544;1260;138275;-76
2023/04/15 05:50:57;;;;;;;17.30;13.60;;;;;;;8.67;89.44;99289.34;103119;1264;110907;-76
2023/04/15 05:53:21;;;;;;;15.60;12.90;;;;;;;8.67;89.81;99292.66;103206;1260;138498;-75
2023/04/15 05:55:44;;;;;;;16.60;14.20;;;;;;;8.66;89.62;99293.03;103078;1262;97810;-75
2023/04/15 05:58:08;;;;;;;16.20;12.50;;;;;;;8.67;89.50;99291.61;103016;1260;108760;-76
2023/04/15 06:00:32;;;;;;;18.40;13.20;;;;;;;8.67;89.52;99294.38;103041;1258;138401;-76
2023/04/15 06:02:58;;;;;;;18.90;13.60;;;;;;;8.67;90.06;99294.55;103062;1261;112118;-75
2023/04/15 06:05:22;;;;;;;15.00;12.40;;;;;;;8.67;89.79;99293.88;102959;1257;138540;-75
2023/04/15 06:07:46;;;;;;;16.00;12.70;;;;;;;8.66;89.83;99293.37;102958;1258;98295;-76
2023/04/15 06:10:12;;;;;;;15.80;13.00;;;;;;;8.67;89.88;99296.63;103032;1261;109508;-75
2023/04/15 06:12:35;;;;;;;15.40;12.00;;;;;;;8.66;90.31;99293.71;102881;1262;138414;-74
2023/04/15 06:14:59;;;;;;;15.10;12.50;;;;;;;8.64;90.54;99295.03;103137;1257;113259;-75
2023/04/15 06:17:24;;;;;;;18.40;12.60;;;;;;;8.64;90.60;99294.52;102964;1261;138630;-75
2023/04/15 06:19:49;;;;;;;16.30;13.20;;;;;;;8.62;90.33;99297.35;103139;1257;97766;-75
2023/04/15 06:22:12;;;;;;;15.00;12.90;;;;;;;8.64;90.38;99299.02;103112;1258;107593;-75
2023/04/15 06:24:36;;;;;;;14.40;12.40;;;;;;;8.64;91.21;99304.06;103048;1260;138469;-74
2023/04/15 06:27:08;;;;;;;14.00;12.50;;;;;;;8.62;90.88;99302.73;103127;1258;110739;-75
2023/04/15 06:29:32;;;;;;;15.90;12.10;;;;;;;8.62;91.30;99299.61;102914;1257;138626;-74
2023/04/15 06:32:03;;;;;;;15.20;12.00;;;;;;;8.61;91.07;99304.30;103098;1260;97777;-74
2023/04/15 06:34:27;;;;;;;16.10;12.90;;;;;;;8.62;90.75;99307.23;103143;1258;107620;-74
2023/04/15 06:36:50;;;;;;;16.70;12.10;;;;;;;8.63;90.82;99308.05;103041;1260;138473;-75
2023/04/15 06:39:14;;;;;;;15.40;11.70;;;;;;;8.65;90.74;99313.02;103157;1259;111887;-75
2023/04/15 06:41:38;;;;;;;13.50;11.90;;;;;;;8.64;91.17;99309.57;103440;1256;138515;-75
2023/04/15 06:44:01;;;;;;;15.40;12.10;;;;;;;8.65;90.90;99313.36;103597;1260;98386;-76
2023/04/15 06:46:25;;;;;;;14.80;12.00;;;;;;;8.65;90.60;99311.48;102998;1260;108196;-76
2023/04/15 06:48:49;;;;;;;12.50;10.50;;;;;;;8.67;91.19;99316.75;102935;1259;138456;-76
2023/04/15 06:51:13;;;;;;;15.10;11.70;;;;;;;8.66;91.09;99315.23;103171;1256;113144;-76
2023/04/15 06:53:39;;;;;;;17.80;10.90;;;;;;;8.66;91.44;99316.95;103241;1257;138356;-75
2023/04/15 06:56:02;;;;;;;;;;;;;;;8.66;91.28;99319.38;103101;1257;97846;-75
2023/04/15 06:58:25;;;;;;;14.10;11.30;;;;;;;8.66;91.85;99319.55;103091;1259;106599;-76
2023/04/15 07:00:49;;;;;;;14.20;11.50;;;;;;;8.64;91.89;99321.53;102900;1260;138454;-74
2023/04/15 07:03:13;;;;;;;13.20;10.80;;;;;;;8.64;91.35;99325.17;104319;1255;110558;-74
2023/04/15 07:05:37;;;;;;;12.10;10.60;;;;;;;8.66;91.38;99329.09;103909;1259;138286;-73
2023/04/15 07:08:04;;;;;;;13.30;10.50;;;;;;;8.67;91.52;99328.19;103048;1260;97898;-76
2023/04/15 07:10:30;;;;;;;12.60;10.60;;;;;;;8.69;91.30;99333.31;102923;1260;108796;-71
2023/04/15 07:12:54;;;;;;;12.70;10.00;;;;;;;8.70;91.33;99332.92;102859;1257;138532;-72
2023/04/15 07:15:17;;;;;;;11.30;10.10;;;;;;;8.70;91.31;99331.89;102949;1260;111292;-74
2023/04/15 07:17:42;;;;;;;12.10;9.80;;;;;;;8.69;91.58;99331.73;102857;1257;138297;-74
2023/04/15 07:20:08;;;;;;;11.80;10.10;;;;;;;8.70;91.26;99334.30;102918;1258;97806;-74
2023/04/15 07:22:32;;;;;;;11.40;9.70;;;;;;;8.71;91.28;99334.95;104343;1260;108803;-75
2023/04/15 07:24:55;;;;;;;10.30;8.80;;;;;;;8.70;91.74;99341.20;104078;1257;138819;-74
2023/04/15 07:27:19;;;;;;;11.70;9.20;;;;;;;8.69;91.20;99342.11;102971;1261;112037;-74
2023/04/15 07:29:42;;;;;;;12.60;8.80;;;;;;;8.71;91.15;99342.20;102894;1256;138153;-72
2023/04/15 07:32:06;;;;;;;13.90;9.30;;;;;;;8.72;90.98;99339.91;104365;1257;96119;-74
2023/04/15 07:34:33;;;;;;;9.70;8.00;;;;;;;8.75;91.21;99343.44;104151;1257;108441;-74
2023/04/15 07:36:57;;;;;;;8.90;7.80;;;;;;;8.77;91.36;99338.48;102828;1260;139151;-75
2023/04/15 07:39:21;;;;;;;9.00;7.90;;;;;;;8.76;91.32;99343.40;102831;1260;111586;-75
2023/04/15 07:41:45;;;;;;;10.20;8.40;;;;;;;8.75;91.04;99343.26;102905;1258;138077;-73
2023/04/15 07:44:09;;;;;;;11.10;8.50;;;;;;;8.78;91.28;99344.72;103526;1257;98361;-74
2023/04/15 07:46:33;;;;;;;9.00;7.70;;;;;;;8.75;91.21;99336.67;102967;1260;109504;-73
2023/04/15 07:48:58;;;;;;;11.40;8.10;;;;;;;8.77;91.50;99341.44;102890;1257;138211;-66
2023/04/15 07:51:31;;;;;;;13.00;8.90;;;;;;;8.79;91.54;99339.13;102916;1256;111271;-67
2023/04/15 07:53:55;;;;;;;11.70;8.00;;;;;;;8.87;92.22;99338.48;104268;1256;138434;-66
2023/04/15 07:56:19;;;;;;;8.90;7.80;;;;;;;8.91;92.53;99338.48;104395;1256;95819;-74
2023/04/15 07:58:42;;;;;;;8.70;7.80;;;;;;;8.92;91.46;99337.38;104314;1256;107304;-77
2023/04/15 08:01:06;;;;;;;10.00;7.70;;;;;;;8.91;90.87;99337.60;104149;1257;138770;-83
2023/04/15 08:03:41;;;;;;;9.80;7.70;;;;;;;8.91;90.71;99340.73;103079;1257;111769;-78
2023/04/15 08:06:06;;;;;;;11.00;7.90;;;;;;;8.91;90.53;99342.64;102842;1260;138864;-70
2023/04/15 08:08:49;;;;;;;8.90;7.60;;;;;;;8.92;90.74;99338.97;102986;1260;97796;-72
2023/04/15 08:11:13;;;;;;;8.80;7.30;;;;;;;8.91;90.42;99339.52;102801;1260;137993;-73
2023/04/15 08:13:36;;;;;;;8.50;7.20;;;;;;;8.90;90.71;99337.66;102844;1260;97895;-78
2023/04/15 08:16:19;;;;;;;8.80;7.10;;;;;;;8.89;90.79;99340.48;102877;1258;111958;-76
2023/04/15 08:18:48;;;;;;;9.00;6.60;;;;;;;8.86;90.70;99335.41;104061;1256;138715;-72
2023/04/15 08:21:32;;;;;;;9.40;6.60;;;;;;;8.85;90.76;99336.84;104350;1257;96109;-71
2023/04/15 08:23:56;;;;;;;8.20;6.40;;;;;;;8.85;90.81;99334.92;104073;1255;139858;-73
2023/04/15 08:26:21;;;;;;;7.70;6.70;;;;;;;8.86;90.76;99340.08;104283;1256;97277;-67
2023/04/15 08:29:01;;;;;;;9.50;6.40;;;;;;;8.88;90.61;99341.05;104205;1255;138022;-72
2023/04/15 08:31:28;;;;;;;9.00;6.90;;;;;;;8.90;90.74;99340.08;103345;1256;107410;-70
2023/04/15 08:33:58;;;;;;;9.00;5.60;;;;;;;8.94;90.73;99338.36;102908;1261;97687;-73
2023/04/15 08:36:26;;;;;;;8.50;6.50;;;;;;;8.96;90.47;99338.61;104043;1257;137955;-70
2023/04/15 08:38:52;;;;;;;8.20;6.30;;;;;;;9.00;90.41;99340.56;104125;1255;98227;-72
2023/04/15 08:41:22;;;;;;;8.50;6.30;;;;;;;9.03;90.66;99341.30;102788;1260;138615;-75
2023/04/15 08:43:53;;;;;;;6.70;5.90;;;;;;;9.05;90.39;99343.49;103427;1257;107685;-71
2023/04/15 08:46:33;;;;;;;8.20;5.80;;;;;;;9.07;90.29;99342.67;103637;1257;97789;-75
2023/04/15 08:48:58;;;;;;;7.60;5.20;;;;;;;9.09;90.06;99341.55;102707;1256;137845;-73
2023/04/15 08:51:22;;;;;;;6.70;5.70;;;;;;;9.13;90.15;99344.90;102834;1257;97845;-73
2023/04/15 08:54:09;;;;;;;7.50;5.80;;;;;;;9.15;89.93;99342.75;102742;1260;137827;-76
2023/04/15 08:56:53;;;;;;;6.80;5.60;;;;;;;9.19;90.04;99344.30;104258;1256;107604;-76
2023/04/15 08:59:20;;;;;;;6.50;5.10;;;;;;;9.19;90.23;99347.27;104186;1257;138909;-71
2023/04/15 09:01:44;;;;;;;5.90;5.30;;;;;;;9.20;89.87;99343.58;104255;1256;107747;-71
2023/04/15 09:04:20;;;;;;;7.10;5.80;;;;;;;9.23;89.98;99344.81;104303;1256;96693;-73
2023/04/15 09:06:56;;;;;;;7.70;5.80;;;;;;;9.27;90.08;99340.86;104221;1256;138518;-74
2023/04/15 09:09:19;;;;;;;7.60;5.00;;;;;;;9.31;90.20;99343.45;103128;1260;107581;-73
2023/04/15 09:11:46;;;;;;;6.50;4.90;;;;;;;9.33;90.12;99342.66;102848;1257;138140;-74
2023/04/15 09:14:10;;;;;;;5.30;4.70;;;;;;;9.39;90.02;99345.21;102789;1257;107639;-73
2023/04/15 09:16:58;;;;;;;5.70;4.70;;;;;;;9.43;89.71;99343.28;102856;1258;97770;-73
2023/04/15 09:19:33;;;;;;;5.20;4.70;;;;;;;9.48;89.61;99346.20;102962;1258;110156;-75
2023/04/15 09:21:58;;;;;;;5.40;4.40;;;;;;;9.48;89.60;99350.52;102833;1261;107498;-73
2023/04/15 09:24:23;;;;;;;7.80;4.60;;;;;;;9.45;89.49;99346.31;102891;1257;138181;-77
2023/04/15 09:27:07;;;;;;;5.60;4.70;;;;;;;9.48;89.65;99350.73;102967;1259;107336;-71
2023/04/15 09:29:41;;;;;;;4.70;4.20;;;;;;;9.47;89.25;99346.06;102880;1255;138810;-70
2023/04/15 09:32:12;;;;;;;5.50;4.30;;;;;;;9.46;89.51;99347.31;102996;1256;113146;-70
2023/04/15 09:34:56;;;;;;;4.50;3.90;;;;;;;9.48;89.60;99346.73;102916;1257;108701;-72
2023/04/15 09:37:35;;;;;;;4.40;3.90;;;;;;;9.47;89.63;99355.25;103040;1258;98326;-74
2023/04/15 09:39:59;;;;;;;4.50;3.90;;;;;;;9.46;89.48;99354.08;102933;1256;107861;-70
2023/04/15 09:42:32;;;;;;;6.20;4.10;;;;;;;9.46;89.41;99355.48;102929;1257;138831;-73
2023/04/15 09:45:16;;;;;;;4.70;3.90;;;;;;;9.47;89.68;99356.12;104308;1256;111774;-68
2023/04/15 09:47:50;;;;;;;4.00;3.60;;;;;;;9.47;89.56;99352.30;104121;1257;138299;-72
2023/04/15 09:50:14;;;;;;;5.20;4.00;;;;;;;9.50;89.73;99358.45;103519;1256;98420;-73
2023/04/15 09:52:42;;;;;;;5.40;4.10;;;;;;;9.52;89.55;99361.66;104265;1256;107505;-73
2023/04/15 09:55:09;;;;;;;4.70;3.90;;;;;;;9.53;89.70;99361.42;103219;1258;138549;-71
2023/04/15 09:57:55;;;;;;;5.80;3.80;;;;;;;9.53;89.76;99367.15;103115;1257;112348;-71
2023/04/15 10:00:21;;;;;;;5.90;3.60;;;;;;;9.55;89.49;99365.52;102959;1256;138189;-71
2023/04/15 10:02:48;;;;;;;4.70;3.90;;;;;;;9.55;89.62;99365.70;104006;1257;96935;-71
2023/04/15 10:05:15;;;;;;;4.50;4.00;;;;;;;9.56;89.49;99368.28;104293;1255;138517;-72
2023/04/15 10:07:40;;;;;;;4.20;3.80;;;;;;;9.58;89.71;99366.95;104040;1256;97854;-73
2023/04/15 10:10:24;;;;;;;4.20;3.80;;;;;;;9.61;89.42;99368.20;103098;1256;114450;-73
2023/04/15 10:13:10;;;;;;;6.60;4.10;;;;;;;9.67;89.35;99362.05;102961;1260;138403;-72
2023/04/15 10:15:35;;;;;;;;;;;;;;;9.73;89.47;99368.42;103061;1261;97814;-70
2023/04/15 10:18:09;;;;;;;4.10;3.70;;;;;;;9.75;89.37;99363.13;103952;1255;124612;-70
2023/04/15 10:20:54;;;;;;;4.90;3.90;;;;;;;9.73;89.09;99362.86;103155;1256;97718;-69
2023/04/15 10:23:27;;;;;;;5.10;4.00;;;;;;;9.75;89.35;99363.66;103035;1256;138189;-69
2023/04/15 10:26:00;;;;;;;5.90;4.00;;;;;;;9.74;89.29;99368.55;103132;1256;108652;-68
2023/04/15 10:28:23;;;;;;;5.00;4.10;;;;;;;9.75;89.11;99366.94;103008;1256;98302;-67
2023/04/15 10:30:49;;;;;;;4.90;3.90;;;;;;;9.78;89.09;99365.06;102944;1256;138177;-68
2023/04/15 10:33:23;;;;;;;6.20;3.90;;;;;;;9.79;88.98;99369.02;103031;1256;97806;-69
2023/04/15 10:36:07;;;;;;;4.40;3.80;;;;;;;9.82;88.99;99368.52;104273;1255;138047;-68
2023/04/15 10:38:42;;;;;;;5.80;4.20;;;;;;;9.87;89.43;99367.09;104316;1255;107076;-67
2023/04/15 10:41:29;;;;;;;5.90;3.60;;;;;;;9.93;89.08;99366.34;103381;1255;138363;-69
2023/04/15 10:44:05;;;;;;;6.00;4.40;;;;;;;9.93;88.68;99366.99;103389;1256;107954;-69
2023/04/15 10:46:40;;;;;;;5.10;4.10;;;;;;;9.92;88.51;99363.58;103768;1258;97890;-69
2023/04/15 10:49:09;;;;;;;5.70;4.50;;;;;;;9.92;88.74;99365.70;102999;1259;138023;-69
2023/04/15 10:51:58;;;;;;;5.10;3.90;;;;;;;9.90;88.63;99363.16;103298;1255;108531;-69
2023/04/15 10:54:32;;;;;;;4.20;3.80;;;;;;;9.90;89.01;99359.34;104317;1255;138171;-70
2023/04/15 10:57:08;;;;;;;4.70;3.90;;;;;;;9.90;88.97;99369.23;103293;1255;107801;-72
2023/04/15 10:59:32;;;;;;;4.60;3.90;;;;;;;9.91;88.72;99369.74;104301;1255;140146;-72
2023/04/15 11:02:01;;;;;;;5.00;3.50;;;;;;;9.93;88.83;99364.78;104452;1256;111304;-71
2023/04/15 11:04:54;;;;;;;3.80;3.20;;;;;;;9.95;88.78;99371.10;103914;1255;106799;-71
2023/04/15 11:07:39;;;;;;;6.10;3.80;;;;;;;9.93;88.56;99368.94;103069;1256;137971;-71
2023/04/15 11:10:24;;;;;;;4.80;3.70;;;;;;;9.90;88.48;99368.55;103027;1256;107660;-71
2023/04/15 11:13:16;;;;;;;4.40;3.80;;;;;;;9.88;88.69;99374.17;102930;1256;138239;-71
2023/04/15 11:16:01;;;;;;;4.80;3.80;;;;;;;9.89;88.92;99373.46;103078;1256;110900;-71
2023/04/15 11:18:54;;;;;;;4.80;3.80;;;;;;;9.91;89.01;99372.31;102892;1255;138121;-68